Sand Point Airport
PASD : now visible

Airfield :











YOU CAN JOIN US ON...

 
LOGIN :

Register | Disclaimer

   EN    FR    IT 

 









Legend :    VFR   Marginal VFR   IFR   Intensive IFR   Very Intensive IFR
Visi :
Ceiling :
>= 8 km
>= 3000ft
5 to 8 km
1000 to 3000 ft
1500m to 5 km
500 to 1000 ft
800 to 1500m
200 to 500 ft
< 800m
< 200 ft
Symbols :   Thunderstorms  Fog  Heavy snow  Heavy precipitations  Wind > 20 kt






- Airport Elevation : 21 ft
- IATA code : SDP


PASD - Sand Point

CURRENT METAR :
  • 080406Z AUTO 33016KT 5SM -SN BR FEW015 BKN025 OVC043 M01/M03 A2997 RMK AO2 FZRANO PNO $

EXPIRED METARs :
  • 080305Z AUTO 31016G21KT 3SM -SN FEW012 BKN017 OVC032 00/M03 A2995 RMK AO2 RAB0259E01 FZRANO PNO $
  • 080256Z 31016KT 8SM -SN SCT019 BKN032 BKN043 01/M04 A2994 RMK AO2 SLP142 LAST 6//// T00061039 53016 PNO $
  • 080159Z 31016KT 10SM -SN SCT023 BKN041 BKN055 01/M04 A2992 RMK AO2 PNO $
  • 080156Z 32017KT 10SM -SN FEW023 BKN041 OVC060 01/M04 A2992 RMK AO2 PK WND 32027/0119 SLP135 T00111039 PNO $

TAF PASD
Valid from the 08 at 00:00 until the 09 at 00:00 UTC


072325Z 0800/0824 32015G25KT 4SM -SHSN SCT007 BKN015
TEMPO 0800/0804 1 1/2SM -SN BR
FM080600 33012G20KT P6SM BKN025
FM081200 33011KT P6SM SKC



MET'MAP, your aeronautical weather chart ! - Copyright ORBIFLY December 2007 - Disclaimer

ORBIFLY MET'MAP TEAM :

Programming & Development : Alexandra Zaïnal
Concept & original design : Baudouin d'Aumeries
Assistance for programming : Marc-Olivier Méhu
Technical & hardware support : Manuel Goepfert

Contact : metmap@orbifly.com




SOURCES & CREDITS :

   NOAA       Earth
Advisory